createdAt,value
2023-09-18T00:01:41.231Z,96669.75
2023-09-18T00:04:07.789Z,96665.84
2023-09-18T00:06:34.323Z,96672.38
2023-09-18T00:09:00.861Z,96660.47
2023-09-18T00:11:27.462Z,96658.88
2023-09-18T00:13:54.037Z,96659.41
2023-09-18T00:16:20.622Z,96656.28
2023-09-18T00:18:47.155Z,96660.19
2023-09-18T00:21:13.685Z,96655.09
2023-09-18T00:23:40.269Z,96659.13
2023-09-18T00:26:06.892Z,96657.25
2023-09-18T00:28:33.502Z,96661.72
2023-09-18T00:31:00.120Z,96673.13
2023-09-18T00:33:26.725Z,96689.97
2023-09-18T00:35:53.302Z,96695.53
2023-09-18T00:38:19.924Z,96700.41
2023-09-18T00:40:46.555Z,96709.53
2023-09-18T00:43:13.195Z,96705.19
2023-09-18T00:45:39.796Z,96696.06
2023-09-18T00:48:06.421Z,96695.94
2023-09-18T00:50:33.103Z,96696.09
2023-09-18T00:52:59.659Z,96694.66
2023-09-18T00:55:26.303Z,96709.34
2023-09-18T00:57:52.941Z,96722.69
2023-09-18T01:00:19.496Z,96724.66
2023-09-18T01:02:46.600Z,96734.22
2023-09-18T01:05:13.302Z,96737.00
2023-09-18T01:07:39.899Z,96729.75
2023-09-18T01:10:06.468Z,96733.75
2023-09-18T01:12:33.028Z,96733.34
2023-09-18T01:14:59.608Z,96737.34
2023-09-18T01:17:26.141Z,96746.94
2023-09-18T01:19:52.679Z,96742.03
2023-09-18T01:22:20.225Z,96746.50
2023-09-18T01:24:46.839Z,96749.75
2023-09-18T01:27:13.404Z,96748.16
2023-09-18T01:29:39.937Z,96750.22
2023-09-18T01:32:06.560Z,96724.22
2023-09-18T01:34:33.254Z,96732.28
2023-09-18T01:36:59.778Z,96744.19
2023-09-18T01:39:26.320Z,96737.06
2023-09-18T01:41:52.857Z,96725.91
2023-09-18T01:44:19.341Z,96718.81
2023-09-18T01:46:45.999Z,96723.03
2023-09-18T01:49:12.660Z,96727.72
2023-09-18T01:51:39.187Z,96736.09
2023-09-18T01:54:05.716Z,96733.16
2023-09-18T01:56:32.348Z,96738.38
2023-09-18T01:58:58.978Z,96742.28
2023-09-18T02:01:26.060Z,96734.88
2023-09-18T02:04:17.755Z,96743.91
2023-09-18T02:06:39.782Z,96755.31
2023-09-18T02:09:06.433Z,96758.47
2023-09-18T02:11:32.997Z,96751.88
2023-09-18T02:13:59.576Z,96745.31
2023-09-18T02:16:26.198Z,96731.97
2023-09-18T02:18:52.918Z,96721.16
2023-09-18T02:21:19.605Z,96729.88
2023-09-18T02:23:46.221Z,96728.69
2023-09-18T02:26:12.833Z,96724.66
2023-09-18T02:28:40.413Z,96725.66
2023-09-18T02:31:06.943Z,96710.09
2023-09-18T02:33:33.544Z,96700.09
2023-09-18T02:36:00.184Z,96703.03
2023-09-18T02:38:26.746Z,96699.00
2023-09-18T02:40:53.450Z,96693.47
2023-09-18T02:43:19.971Z,96703.03
2023-09-18T02:45:46.531Z,96681.19
2023-09-18T02:48:13.106Z,96689.66
2023-09-18T02:50:39.710Z,96689.66
2023-09-18T02:53:06.383Z,96683.66
2023-09-18T02:55:32.982Z,96668.56
2023-09-18T02:57:59.556Z,96659.94
2023-09-18T03:00:40.962Z,96667.28
2023-09-18T03:03:09.859Z,96659.50
2023-09-18T03:05:36.632Z,96657.97
2023-09-18T03:08:03.299Z,96665.94
2023-09-18T03:10:29.910Z,96666.06
2023-09-18T03:12:56.454Z,96672.47
2023-09-18T03:15:23.000Z,96676.38
2023-09-18T03:17:49.635Z,96673.69
2023-09-18T03:20:16.409Z,96664.31
2023-09-18T03:22:42.979Z,96656.81
2023-09-18T03:25:09.532Z,96663.31
2023-09-18T03:27:36.080Z,96660.72
2023-09-18T03:30:02.622Z,96656.59
2023-09-18T03:32:29.200Z,96657.97
2023-09-18T03:34:55.819Z,96656.13
2023-09-18T03:37:22.449Z,96665.50
2023-09-18T03:39:49.037Z,96664.84
2023-09-18T03:42:15.666Z,96666.91
2023-09-18T03:44:42.228Z,96680.72
2023-09-18T03:47:08.896Z,96663.88
2023-09-18T03:49:35.496Z,96649.94
2023-09-18T03:52:02.047Z,96657.47
2023-09-18T03:54:28.587Z,96673.22
2023-09-18T03:56:55.120Z,96683.34
2023-09-18T03:59:21.661Z,96681.72
2023-09-18T04:01:48.230Z,96665.72
2023-09-18T04:04:14.784Z,96670.19
2023-09-18T04:06:41.383Z,96680.19
2023-09-18T04:09:07.943Z,96691.94
2023-09-18T04:11:34.498Z,96696.84
2023-09-18T04:14:01.149Z,96695.19
2023-09-18T04:16:27.773Z,96700.22
2023-09-18T04:18:54.580Z,96705.84
2023-09-18T04:21:21.256Z,96698.16
2023-09-18T04:23:47.856Z,96719.88
2023-09-18T04:26:14.549Z,96747.81
2023-09-18T04:28:41.063Z,96778.34
2023-09-18T04:31:07.596Z,96765.66
2023-09-18T04:33:34.226Z,96749.78
2023-09-18T04:36:00.830Z,96748.88
2023-09-18T04:38:27.424Z,96746.69
2023-09-18T04:40:54.021Z,96734.09
2023-09-18T04:43:20.551Z,96739.97
2023-09-18T04:45:47.223Z,96731.16
2023-09-18T04:48:13.856Z,96713.47
2023-09-18T04:50:40.643Z,96703.56
2023-09-18T04:53:07.321Z,96707.91
2023-09-18T04:55:33.862Z,96699.63
2023-09-18T04:58:00.549Z,96699.53
2023-09-18T05:00:27.183Z,96702.72
2023-09-18T05:02:53.849Z,96708.88
2023-09-18T05:05:20.602Z,96723.31
2023-09-18T05:07:47.176Z,96745.69
2023-09-18T05:10:13.721Z,96745.13
2023-09-18T05:12:40.267Z,96748.88
2023-09-18T05:15:06.903Z,96740.59
2023-09-18T05:17:33.519Z,96728.38
2023-09-18T05:20:00.145Z,96721.25
2023-09-18T05:22:26.744Z,96711.81
2023-09-18T05:24:53.280Z,96711.03
2023-09-18T05:27:19.809Z,96720.31
2023-09-18T05:29:46.345Z,96721.25
2023-09-18T05:32:12.943Z,96725.06
2023-09-18T05:34:39.497Z,96737.72
2023-09-18T05:37:06.073Z,96754.06
2023-09-18T05:39:32.592Z,96762.16
2023-09-18T05:41:59.137Z,96776.03
2023-09-18T05:44:25.696Z,96800.53
2023-09-18T05:46:52.311Z,96830.75
2023-09-18T05:49:18.880Z,96857.97
2023-09-18T05:51:45.421Z,96866.59
2023-09-18T05:54:12.033Z,96852.78
2023-09-18T05:56:38.591Z,96858.84
2023-09-18T05:59:05.184Z,96857.47
2023-09-18T06:01:31.760Z,96850.25
2023-09-18T06:03:58.417Z,96861.53
2023-09-18T06:06:24.955Z,96848.31
2023-09-18T06:08:51.790Z,96848.81
2023-09-18T06:11:18.912Z,96846.00
2023-09-18T06:13:45.455Z,96864.09
2023-09-18T06:16:11.996Z,96862.09
2023-09-18T06:18:38.676Z,96871.38
2023-09-18T06:21:05.214Z,96875.34
2023-09-18T06:23:31.795Z,96838.16
2023-09-18T06:25:58.424Z,96837.13
2023-09-18T06:28:24.893Z,96838.00
2023-09-18T06:30:51.496Z,96842.66
2023-09-18T06:33:18.116Z,96851.47
2023-09-18T06:35:44.766Z,96839.53
2023-09-18T06:38:11.420Z,96837.88
2023-09-18T06:40:37.959Z,96827.75
2023-09-18T06:43:04.497Z,96825.53
2023-09-18T06:45:31.016Z,96834.25
2023-09-18T06:47:57.664Z,96839.41
2023-09-18T06:50:24.357Z,96841.56
2023-09-18T06:52:50.991Z,96841.81
2023-09-18T06:55:17.566Z,96862.81
2023-09-18T06:57:44.124Z,96874.75
2023-09-18T07:00:10.733Z,96892.13
2023-09-18T07:02:37.573Z,96867.94
2023-09-18T07:05:04.208Z,96850.97
2023-09-18T07:07:30.753Z,96856.59
2023-09-18T07:12:26.741Z,96843.84
2023-09-18T07:14:53.304Z,96873.41
2023-09-18T07:17:19.925Z,96905.47
2023-09-18T07:19:46.448Z,96899.50
2023-09-18T07:22:12.984Z,96890.13
2023-09-18T07:24:39.564Z,96888.06
2023-09-18T07:27:06.223Z,96910.16
2023-09-18T07:29:32.804Z,96927.31
2023-09-18T07:31:59.542Z,96922.78
2023-09-18T07:34:26.158Z,96933.91
2023-09-18T07:36:52.714Z,96936.19
2023-09-18T07:39:19.218Z,96945.03
2023-09-18T07:41:45.848Z,96959.56
2023-09-18T07:44:12.462Z,96958.06
2023-09-18T07:46:39.063Z,96947.31
2023-09-18T07:49:05.615Z,96939.41
2023-09-18T07:51:33.192Z,96935.25
2023-09-18T07:53:59.706Z,96950.13
2023-09-18T07:56:26.310Z,96945.53
2023-09-18T07:58:53.207Z,96960.66
2023-09-18T08:01:19.931Z,96979.13
2023-09-18T08:03:46.551Z,96993.44
2023-09-18T08:06:13.155Z,96991.53
2023-09-18T08:08:39.793Z,96990.97
2023-09-18T08:11:06.454Z,96998.72
2023-09-18T08:13:33.005Z,96980.88
2023-09-18T08:15:59.715Z,96986.31
2023-09-18T08:18:26.484Z,96979.06
2023-09-18T08:20:53.167Z,96949.50
2023-09-18T08:23:19.777Z,96960.41
2023-09-18T08:25:46.365Z,96979.00
2023-09-18T08:28:12.972Z,96967.81
2023-09-18T08:30:39.517Z,96947.25
2023-09-18T08:33:06.373Z,96953.50
2023-09-18T08:35:33.246Z,96960.66
2023-09-18T08:37:59.879Z,96970.50
2023-09-18T08:40:26.450Z,96969.91
2023-09-18T08:42:53.018Z,96992.81
2023-09-18T08:45:19.629Z,96993.94
2023-09-18T08:47:46.258Z,96990.78
2023-09-18T08:50:13.059Z,97005.19
2023-09-18T08:52:39.670Z,96994.94
2023-09-18T08:55:08.158Z,96978.81
2023-09-18T08:57:36.003Z,96984.81
2023-09-18T09:00:02.572Z,96995.13
2023-09-18T09:02:29.319Z,96983.91
2023-09-18T09:04:55.947Z,96967.59
2023-09-18T09:07:22.562Z,96987.88
2023-09-18T09:09:49.140Z,96986.59
2023-09-18T09:12:15.727Z,96960.63
2023-09-18T09:14:42.284Z,96924.94
2023-09-18T09:17:08.895Z,96908.53
2023-09-18T09:19:35.405Z,96878.13
2023-09-18T09:22:02.069Z,96842.78
2023-09-18T09:24:28.693Z,96805.97
2023-09-18T09:26:55.293Z,96839.28
2023-09-18T09:29:21.912Z,96855.19
2023-09-18T09:31:48.512Z,96849.25
2023-09-18T09:34:15.079Z,96883.41
2023-09-18T09:36:41.659Z,96894.63
2023-09-18T09:39:08.222Z,96902.53
2023-09-18T09:41:34.779Z,96908.53
2023-09-18T09:44:01.420Z,96915.69
2023-09-18T09:46:28.046Z,96929.16
2023-09-18T09:48:54.719Z,96914.81
2023-09-18T09:51:23.680Z,96898.16
2023-09-18T09:53:50.226Z,96889.78
2023-09-18T09:56:16.863Z,96895.97
2023-09-18T09:58:44.724Z,96920.44
2023-09-18T10:01:11.306Z,96911.41
2023-09-18T10:03:37.914Z,96916.19
2023-09-18T10:06:04.593Z,96903.72
2023-09-18T10:08:31.239Z,96928.13
2023-09-18T10:10:57.843Z,96927.38
2023-09-18T10:13:24.543Z,96932.75
2023-09-18T10:15:51.171Z,96942.66
2023-09-18T10:20:44.703Z,96948.44
2023-09-18T10:23:11.312Z,96922.28
2023-09-18T10:25:37.950Z,96909.69
2023-09-18T10:28:04.678Z,96918.38
2023-09-18T10:30:31.277Z,96922.63
2023-09-18T10:32:57.987Z,96923.66
2023-09-18T10:35:24.710Z,96924.91
2023-09-18T10:37:51.400Z,96936.81
2023-09-18T10:40:17.963Z,96946.38
2023-09-18T10:42:44.539Z,96965.22
2023-09-18T10:45:11.208Z,96977.97
2023-09-18T10:47:37.843Z,96996.78
2023-09-18T10:50:04.493Z,97016.91
2023-09-18T10:52:31.043Z,97017.69
2023-09-18T10:54:57.587Z,97022.16
2023-09-18T10:57:24.583Z,97018.50
2023-09-18T10:59:51.336Z,97008.00
2023-09-18T11:02:18.021Z,96989.16
2023-09-18T11:04:44.644Z,96976.59
2023-09-18T11:07:11.219Z,96983.53
2023-09-18T11:09:37.849Z,97003.16
2023-09-18T11:12:04.661Z,96996.16
2023-09-18T11:14:31.290Z,97018.00
2023-09-18T11:16:57.869Z,97021.09
2023-09-18T11:19:25.053Z,97005.38
2023-09-18T11:21:51.632Z,96994.81
2023-09-18T11:24:18.157Z,96978.66
2023-09-18T11:26:44.740Z,96931.13
2023-09-18T11:29:11.337Z,96901.66
2023-09-18T11:31:37.908Z,96938.25
2023-09-18T11:34:04.540Z,96963.81
2023-09-18T11:36:31.087Z,96964.72
2023-09-18T11:38:59.598Z,96934.94
2023-09-18T11:41:26.873Z,96936.53
2023-09-18T11:43:53.495Z,96935.09
2023-09-18T11:46:20.142Z,96947.16
2023-09-18T11:48:46.728Z,96933.81
2023-09-18T11:51:13.294Z,96940.78
2023-09-18T11:53:39.838Z,96943.66
2023-09-18T11:56:06.409Z,96929.56
2023-09-18T11:58:33.050Z,96935.44
2023-09-18T12:00:59.608Z,96973.22
2023-09-18T12:03:26.668Z,96981.63
2023-09-18T12:05:53.539Z,96988.69
2023-09-18T12:08:20.241Z,96973.75
2023-09-18T12:10:46.869Z,96952.50
2023-09-18T12:13:13.486Z,96964.38
2023-09-18T12:15:40.081Z,96965.31
2023-09-18T12:18:06.792Z,96941.13
2023-09-18T12:20:33.381Z,96907.78
2023-09-18T12:22:59.912Z,96924.81
2023-09-18T12:25:26.467Z,96916.69
2023-09-18T12:27:53.198Z,96930.34
2023-09-18T12:30:19.736Z,96910.06
2023-09-18T12:32:46.375Z,96924.50
2023-09-18T12:35:12.981Z,96940.44
2023-09-18T12:37:39.559Z,96936.81
2023-09-18T12:40:06.113Z,96921.25
2023-09-18T12:42:32.724Z,96924.66
2023-09-18T12:44:59.369Z,96926.63
2023-09-18T12:47:25.959Z,96946.06
2023-09-18T12:49:52.521Z,96939.09
2023-09-18T12:52:19.018Z,96940.09
2023-09-18T12:54:45.625Z,96943.06
2023-09-18T12:57:12.203Z,96947.22
2023-09-18T12:59:38.791Z,96950.09
2023-09-18T13:02:05.432Z,96947.41
2023-09-18T13:04:40.576Z,96941.56
2023-09-18T13:07:08.030Z,96949.09
2023-09-18T13:09:34.668Z,96949.94
2023-09-18T13:12:01.268Z,96940.63
2023-09-18T13:14:27.812Z,96936.81
2023-09-18T13:16:54.381Z,96955.72
2023-09-18T13:19:20.939Z,96936.53
2023-09-18T13:21:47.486Z,96924.50
2023-09-18T13:24:14.185Z,96931.88
2023-09-18T13:26:40.873Z,96941.97
2023-09-18T13:29:07.474Z,96940.44
2023-09-18T13:31:34.104Z,96944.75
2023-09-18T13:34:00.742Z,96937.13
2023-09-18T13:36:27.424Z,96946.56
2023-09-18T13:38:54.015Z,96943.22
2023-09-18T13:41:20.695Z,96930.59
2023-09-18T13:43:47.323Z,96916.94
2023-09-18T13:46:13.918Z,96910.31
2023-09-18T13:48:40.651Z,96904.47
2023-09-18T13:51:07.246Z,96911.94
2023-09-18T13:53:34.194Z,96914.81
2023-09-18T13:56:01.096Z,96907.03
2023-09-18T13:58:27.701Z,96923.22
2023-09-18T14:00:54.331Z,96927.31
2023-09-18T14:03:21.133Z,96937.81
2023-09-18T14:05:47.842Z,96931.78
2023-09-18T14:08:14.493Z,96927.38
2023-09-18T14:10:41.089Z,96921.09
2023-09-18T14:13:07.683Z,96928.31
2023-09-18T14:15:34.267Z,96927.28
2023-09-18T14:18:00.893Z,96912.25
2023-09-18T14:20:27.476Z,96914.47
2023-09-18T14:22:54.084Z,96904.31
2023-09-18T14:25:20.683Z,96888.16
2023-09-18T14:27:47.272Z,96883.41
2023-09-18T14:30:13.823Z,96871.00
2023-09-18T14:32:40.458Z,96871.13
2023-09-18T14:35:07.076Z,96881.75
2023-09-18T14:37:33.688Z,96875.19
2023-09-18T14:40:00.272Z,96877.81
2023-09-18T14:42:26.769Z,96887.41
2023-09-18T14:44:53.359Z,96897.66
2023-09-18T14:47:24.456Z,96892.25
2023-09-18T14:49:51.478Z,96875.94
2023-09-18T14:52:18.022Z,96877.50
2023-09-18T14:54:44.569Z,96870.16
2023-09-18T14:57:11.113Z,96862.97
2023-09-18T14:59:42.404Z,96867.69
2023-09-18T15:02:09.305Z,96859.53
2023-09-18T15:04:35.907Z,96854.19
2023-09-18T15:07:02.480Z,96854.69
2023-09-18T15:09:29.033Z,96856.78
2023-09-18T15:11:55.630Z,96848.28
2023-09-18T15:14:22.305Z,96848.22
2023-09-18T15:16:49.061Z,96861.03
2023-09-18T15:19:17.169Z,96860.47
2023-09-18T15:21:45.891Z,96851.41
2023-09-18T15:24:12.458Z,96849.41
2023-09-18T15:26:39.033Z,96838.88
2023-09-18T15:29:05.601Z,96837.06
2023-09-18T15:31:32.153Z,96831.03
2023-09-18T15:33:58.666Z,96834.28
2023-09-18T15:36:28.432Z,96834.06
2023-09-18T15:38:57.490Z,96824.34
2023-09-18T15:41:24.423Z,96821.47
2023-09-18T15:43:51.502Z,96812.06
2023-09-18T15:46:19.068Z,96811.31
2023-09-18T15:48:45.557Z,96809.19
2023-09-18T15:51:12.182Z,96808.84
2023-09-18T15:53:38.878Z,96808.56
2023-09-18T15:56:05.539Z,96805.06
2023-09-18T15:58:32.033Z,96814.59
2023-09-18T16:00:58.515Z,96816.97
2023-09-18T16:03:25.174Z,96811.19
2023-09-18T16:05:51.935Z,96799.63
2023-09-18T16:08:18.484Z,96803.94
2023-09-18T16:10:44.938Z,96818.59
2023-09-18T16:13:11.452Z,96821.56
2023-09-18T16:15:37.942Z,96829.97
2023-09-18T16:18:04.532Z,96827.81
2023-09-18T16:20:31.168Z,96827.78
2023-09-18T16:22:57.731Z,96828.75
2023-09-18T16:25:24.269Z,96832.97
2023-09-18T16:27:50.778Z,96836.16
2023-09-18T16:30:17.320Z,96816.00
2023-09-18T16:32:43.912Z,96827.25
2023-09-18T16:35:10.454Z,96832.00
2023-09-18T16:37:37.064Z,96822.34
2023-09-18T16:40:03.596Z,96822.34
2023-09-18T16:42:30.113Z,96814.81
2023-09-18T16:44:56.589Z,96808.09
2023-09-18T16:47:23.104Z,96815.97
2023-09-18T16:49:49.673Z,96820.97
2023-09-18T16:52:16.201Z,96820.00
2023-09-18T16:54:42.717Z,96829.78
2023-09-18T16:57:09.246Z,96821.72
2023-09-18T16:59:35.769Z,96820.00
2023-09-18T17:02:02.263Z,96815.00
2023-09-18T17:04:28.815Z,96815.63
2023-09-18T17:06:55.321Z,96819.38
2023-09-18T17:09:21.896Z,96816.63
2023-09-18T17:11:48.395Z,96815.41
2023-09-18T17:14:14.899Z,96816.31
2023-09-18T17:16:41.392Z,96828.38
2023-09-18T17:19:07.927Z,96826.53
2023-09-18T17:21:34.723Z,96824.41
2023-09-18T17:24:01.233Z,96831.53
2023-09-18T17:26:27.767Z,96840.53
2023-09-18T17:28:54.285Z,96838.13
2023-09-18T17:31:21.222Z,96842.63
2023-09-18T17:33:47.753Z,96846.13
2023-09-18T17:36:14.318Z,96839.88
2023-09-18T17:38:41.002Z,96843.94
2023-09-18T17:41:07.544Z,96852.19
2023-09-18T17:43:34.024Z,96853.75
2023-09-18T17:46:00.568Z,96854.00
2023-09-18T17:48:27.146Z,96856.13
2023-09-18T17:50:53.825Z,96859.41
2023-09-18T17:53:20.285Z,96850.16
2023-09-18T17:55:46.760Z,96855.56
2023-09-18T17:58:13.248Z,96852.53
2023-09-18T18:00:39.736Z,96854.06
2023-09-18T18:03:06.473Z,96849.94
2023-09-18T18:05:33.577Z,96846.03
2023-09-18T18:08:00.278Z,96832.50
2023-09-18T18:10:26.788Z,96835.56
2023-09-18T18:12:53.343Z,96850.41
2023-09-18T18:15:19.885Z,96863.47
2023-09-18T18:17:46.514Z,96863.97
2023-09-18T18:20:13.088Z,96870.31
2023-09-18T18:22:39.618Z,96861.44
2023-09-18T18:25:06.161Z,96866.47
2023-09-18T18:27:32.665Z,96872.69
2023-09-18T18:29:59.356Z,96866.91
2023-09-18T18:32:25.985Z,96853.69
2023-09-18T18:34:52.539Z,96862.53
2023-09-18T18:37:19.177Z,96862.53
2023-09-18T18:39:45.676Z,96851.56
2023-09-18T18:42:12.184Z,96845.22
2023-09-18T18:44:38.719Z,96844.19
2023-09-18T18:47:05.297Z,96848.34
2023-09-18T18:49:31.800Z,96854.72
2023-09-18T18:51:58.357Z,96850.63
2023-09-18T18:54:24.872Z,96854.72
2023-09-18T18:56:51.484Z,96857.84
2023-09-18T18:59:18.055Z,96869.06
2023-09-18T19:01:44.579Z,96875.16
2023-09-18T19:04:11.267Z,96874.03
2023-09-18T19:06:37.877Z,96873.53
2023-09-18T19:09:04.479Z,96892.25
2023-09-18T19:11:31.026Z,96897.78
2023-09-18T19:13:57.528Z,96897.47
2023-09-18T19:16:24.055Z,96912.16
2023-09-18T19:18:50.578Z,96918.19
2023-09-18T19:21:17.075Z,96920.81
2023-09-18T19:23:43.811Z,96920.06
2023-09-18T19:26:11.220Z,96919.13
2023-09-18T19:28:37.812Z,96909.75
2023-09-18T19:31:04.376Z,96910.38
2023-09-18T19:33:31.029Z,96916.16
2023-09-18T19:35:57.700Z,96922.63
2023-09-18T19:38:24.337Z,96917.00
2023-09-18T19:40:50.887Z,96920.44
2023-09-18T19:43:17.403Z,96928.25
2023-09-18T19:45:44.184Z,96930.84
2023-09-18T19:48:10.843Z,96929.91
2023-09-18T19:50:37.523Z,96942.31
2023-09-18T19:53:04.110Z,96964.81
2023-09-18T19:55:30.734Z,96965.06
2023-09-18T19:57:57.349Z,96972.53
2023-09-18T20:00:24.024Z,96963.84
2023-09-18T20:02:50.727Z,96961.19
2023-09-18T20:05:17.335Z,96956.81
2023-09-18T20:07:43.908Z,96961.66
2023-09-18T20:10:10.555Z,96956.78
2023-09-18T20:12:37.132Z,96948.81
2023-09-18T20:15:03.786Z,96952.84
2023-09-18T20:17:30.481Z,96953.25
2023-09-18T20:19:57.100Z,96959.97
2023-09-18T20:22:23.667Z,96964.03
2023-09-18T20:24:50.245Z,96967.63
2023-09-18T20:27:16.800Z,96968.47
2023-09-18T20:29:43.324Z,96972.53
2023-09-18T20:32:10.088Z,96973.56
2023-09-18T20:34:36.666Z,96987.66
2023-09-18T20:37:03.408Z,97005.78
2023-09-18T20:39:29.988Z,97038.16
2023-09-18T20:41:56.506Z,97045.47
2023-09-18T20:44:23.051Z,97048.06
2023-09-18T20:46:49.654Z,97040.78
2023-09-18T20:49:17.225Z,97029.47
2023-09-18T20:51:43.822Z,97028.53
2023-09-18T20:54:10.427Z,97048.59
2023-09-18T20:56:37.896Z,97042.47
2023-09-18T20:59:05.934Z,97038.38
2023-09-18T21:01:32.522Z,97029.22
2023-09-18T21:03:59.218Z,97032.44
2023-09-18T21:06:25.920Z,97048.00
2023-09-18T21:08:52.587Z,97042.28
2023-09-18T21:11:20.221Z,97052.69
2023-09-18T21:13:46.819Z,97063.22
2023-09-18T21:16:13.414Z,97044.94
2023-09-18T21:18:40.226Z,97059.94
2023-09-18T21:21:15.740Z,97068.78
2023-09-18T21:23:42.975Z,97090.53
2023-09-18T21:26:09.552Z,97098.56
2023-09-18T21:28:36.226Z,97106.59
2023-09-18T21:31:02.830Z,97110.03
2023-09-18T21:33:29.499Z,97102.38
2023-09-18T21:35:56.157Z,97111.78
2023-09-18T21:38:22.795Z,97097.91
2023-09-18T21:40:49.334Z,97104.47
2023-09-18T21:43:15.887Z,97106.53
2023-09-18T21:45:42.557Z,97122.09
2023-09-18T21:48:09.280Z,97107.78
2023-09-18T21:50:36.012Z,97108.56
2023-09-18T21:53:02.698Z,97110.81
2023-09-18T21:55:29.257Z,97108.09
2023-09-18T21:57:55.856Z,97102.97
2023-09-18T22:00:22.391Z,97111.31
2023-09-18T22:02:49.094Z,97112.56
2023-09-18T22:05:15.702Z,97108.59
2023-09-18T22:07:42.253Z,97114.41
2023-09-18T22:10:09.246Z,97115.47
2023-09-18T22:12:35.821Z,97110.53
2023-09-18T22:15:02.475Z,97114.00
2023-09-18T22:17:29.053Z,97107.88
2023-09-18T22:19:55.594Z,97111.81
2023-09-18T22:22:22.158Z,97121.78
2023-09-18T22:24:48.782Z,97121.72
2023-09-18T22:27:15.296Z,97120.41
2023-09-18T22:29:41.915Z,97127.31
2023-09-18T22:32:08.435Z,97138.94
2023-09-18T22:34:34.994Z,97135.75
2023-09-18T22:37:01.616Z,97145.44
2023-09-18T22:39:28.227Z,97141.00
2023-09-18T22:41:54.899Z,97143.91
2023-09-18T22:44:21.527Z,97143.31
2023-09-18T22:46:48.255Z,97144.97
2023-09-18T22:49:14.875Z,97148.53
2023-09-18T22:51:41.389Z,97160.84
2023-09-18T22:54:07.957Z,97156.00
2023-09-18T22:56:34.574Z,97162.63
2023-09-18T22:59:01.233Z,97160.66
2023-09-18T23:01:27.810Z,97160.47
2023-09-18T23:03:54.464Z,97160.47
2023-09-18T23:06:21.017Z,97168.63
2023-09-18T23:08:47.531Z,97163.34
2023-09-18T23:11:14.089Z,97171.03
2023-09-18T23:13:40.897Z,97186.97
2023-09-18T23:16:07.725Z,97182.78
2023-09-18T23:18:34.342Z,97190.69
2023-09-18T23:21:00.884Z,97196.69
2023-09-18T23:23:27.338Z,97206.06
2023-09-18T23:25:53.921Z,97192.00
2023-09-18T23:28:20.465Z,97201.38
2023-09-18T23:30:47.096Z,97205.50
2023-09-18T23:33:13.729Z,97209.84
2023-09-18T23:35:40.394Z,97213.66
2023-09-18T23:38:06.984Z,97215.59
2023-09-18T23:40:33.612Z,97210.88
2023-09-18T23:43:00.251Z,97217.53
2023-09-18T23:45:26.683Z,97209.00
2023-09-18T23:47:53.277Z,97211.47
2023-09-18T23:50:20.011Z,97212.91
2023-09-18T23:52:46.521Z,97216.13
2023-09-18T23:55:13.085Z,97204.34
2023-09-18T23:57:39.648Z,97209.00
